Time;durP1;ratioP1;P1;durP2;ratioP2;P2;SDS_P1;SDS_P2;PMS_P1;PMS_P2;Temp;Humidity;BMP_temperature;BMP_pressure;BME280_temperature;BME280_humidity;BME280_pressure;Samples;Min_cycle;Max_cycle;Signal;HPM_P1;HPM_P2
2021/10/15 00:00:00;;;;;;;;;;;;;;;;;;1002183;29;1057;-31
2021/10/15 00:00:31;;;;;;;;;;;;;;;;;;1006059;29;1428;-29
2021/10/15 00:01:02;;;;;;;;;;;;;;;;;;1002239;29;1155;-32
2021/10/15 00:01:32;;;;;;;;;;;;;;;;;;1006099;29;1416;-27
2021/10/15 00:02:03;;;;;;;;;;;;;;;;;;1013209;29;1258;-36
2021/10/15 00:02:33;;;;;;;;;;;;;;;;;;1014307;29;1186;-25
2021/10/15 00:03:04;;;;;;;;;;;;;;;;;;1017126;29;1661;-33
2021/10/15 00:03:35;;;;;;;;;;;;;;;;;;1013644;29;1196;-29
2021/10/15 00:04:05;;;;;;;;;;;;;;;;;;1013777;29;1061;-35
2021/10/15 00:04:36;;;;;;;;;;;;;;;;;;1009497;29;1354;-27
2021/10/15 00:05:07;;;;;;;;;;;;;;;;;;1006069;29;972;-26
2021/10/15 00:05:37;;;;;;;;;;;;;;;;;;1005982;29;1424;-33
2021/10/15 00:06:08;;;;;;;;;;;;;;;;;;1009967;29;1194;-33
2021/10/15 00:06:38;;;;;;;;;;;;;;;;;;1010229;29;1208;-32
2021/10/15 00:07:10;;;;;;;;;;;;;;;;;;1009225;29;1555;-32
2021/10/15 00:07:40;;;;;;;;;;;;;;;;;;1006020;29;1099;-27
2021/10/15 00:08:11;;;;;;;;;;;;;;;;;;1001854;29;1046;-31
2021/10/15 00:08:42;;;;;;;;;;;;;;;;;;1002299;29;1375;-25
2021/10/15 00:09:12;;;;;;;;;;;;;;;;;;1001922;29;2774;-29
2021/10/15 00:09:42;;;;;;;;;;;;;;;;;;1001949;29;1453;-29
2021/10/15 00:10:13;;;;;;;;;;;;;;;;;;1009878;29;1154;-32
2021/10/15 00:10:43;;;;;;;;;;;;;;;;;;1006319;29;1042;-32
2021/10/15 00:11:14;;;;;;;;;;;;;;;;;;1009453;29;1222;-25
2021/10/15 00:11:45;;;;;;;;;;;;;;;;;;1009198;29;1186;-31
2021/10/15 00:12:15;;;;;;;;;;;;;;;;;;1009665;29;1283;-24
2021/10/15 00:12:46;;;;;;;;;;;;;;;;;;1013925;29;1061;-28
2021/10/15 00:13:16;;;;;;;;;;;;;;;;;;1016880;29;1091;-30
2021/10/15 00:13:47;;;;;;;;;;;;;;;;;;1013477;29;1382;-31
2021/10/15 00:14:18;;;;;;;;;;;;;;;;;;1013761;29;1071;-27
2021/10/15 00:14:48;;;;;;;;;;;;;;;;;;1013488;29;1406;-28
2021/10/15 00:15:19;;;;;;;;;;;;;;;;;;1017181;29;1278;-32
2021/10/15 00:15:50;;;;;;;;;;;;;;;;;;1014030;29;1221;-30
2021/10/15 00:16:21;;;;;;;;;;;;;;;;;;1012827;29;1412;-35
2021/10/15 00:16:51;;;;;;;;;;;;;;;;;;1013792;29;1173;-28
2021/10/15 00:17:21;;;;;;;;;;;;;;;;;;1013754;29;1002;-29
2021/10/15 00:17:52;;;;;;;;;;;;;;;;;;1013385;29;1610;-31
2021/10/15 00:18:23;;;;;;;;;;;;;;;;;;1013528;29;1529;-25
2021/10/15 00:18:53;;;;;;;;;;;;;;;;;;1009431;29;1225;-27
2021/10/15 00:19:24;;;;;;;;;;;;;;;;;;994739;29;1562;-25
2021/10/15 00:19:54;;;;;;;;;;;;;;;;;;994872;29;1393;-29
2021/10/15 00:20:25;;;;;;;;;;;;;;;;;;1002051;29;1463;-31
2021/10/15 00:20:55;;;;;;;;;;;;;;;;;;1006032;29;1330;-29
2021/10/15 00:21:26;;;;;;;;;;;;;;;;;;1009788;29;1294;-34
2021/10/15 00:21:57;;;;;;;;;;;;;;;;;;1013637;29;1114;-27
2021/10/15 00:22:27;;;;;;;;;;;;;;;;;;1013957;29;1090;-30
2021/10/15 00:22:58;;;;;;;;;;;;;;;;;;1017011;29;1451;-29
2021/10/15 00:23:28;;;;;;;;;;;;;;;;;;1009906;29;1464;-28
2021/10/15 00:23:59;;;;;;;;;;;;;;;;;;1013584;29;1163;-28
2021/10/15 00:24:29;;;;;;;;;;;;;;;;;;1014069;29;1014;-31
2021/10/15 00:25:01;;;;;;;;;;;;;;;;;;1025621;28;1054;-27
2021/10/15 00:25:31;;;;;;;;;;;;;;;;;;1025329;28;1403;-30
2021/10/15 00:26:02;;;;;;;;;;;;;;;;;;1017254;29;1212;-27
2021/10/15 00:26:33;;;;;;;;;;;;;;;;;;1013178;29;1036;-29
2021/10/15 00:27:05;;;;;;;;;;;;;;;;;;1005747;29;1215;-28
2021/10/15 00:27:36;;;;;;;;;;;;;;;;;;1006935;29;1123;-33
2021/10/15 00:28:07;;;;;;;;;;;;;;;;;;1013228;29;1517;-29
2021/10/15 00:28:37;;;;;;;;;;;;;;;;;;1017826;29;1029;-29
2021/10/15 00:29:09;;;;;;;;;;;;;;;;;;1017576;29;1989;-27
2021/10/15 00:29:40;;;;;;;;;;;;;;;;;;1016877;29;2061;-30
2021/10/15 00:30:10;;;;;;;;;;;;;;;;;;1013405;29;1239;-26
2021/10/15 00:30:41;;;;;;;;;;;;;;;;;;1013445;29;1043;-28
2021/10/15 00:31:12;;;;;;;;;;;;;;;;;;1006324;29;1143;-33
2021/10/15 00:31:42;;;;;;;;;;;;;;;;;;1014761;29;1076;-27
2021/10/15 00:32:13;;;;;;;;;;;;;;;;;;1014327;29;1599;-29
2021/10/15 00:32:43;;;;;;;;;;;;;;;;;;1014573;29;1094;-27
2021/10/15 00:33:13;;;;;;;;;;;;;;;;;;1010795;29;932;-31
2021/10/15 00:33:43;;;;;;;;;;;;;;;;;;1015030;29;1285;-29
2021/10/15 00:34:14;;;;;;;;;;;;;;;;;;1015160;29;1116;-30
2021/10/15 00:34:45;;;;;;;;;;;;;;;;;;1014653;29;1546;-33
2021/10/15 00:35:16;;;;;;;;;;;;;;;;;;1014436;29;1059;-25
2021/10/15 00:35:46;;;;;;;;;;;;;;;;;;1018566;29;1112;-28
2021/10/15 00:36:17;;;;;;;;;;;;;;;;;;1017909;29;1426;-30
2021/10/15 00:36:48;;;;;;;;;;;;;;;;;;1018785;29;1197;-32
2021/10/15 00:37:19;;;;;;;;;;;;;;;;;;1018290;29;1355;-27
2021/10/15 00:37:49;;;;;;;;;;;;;;;;;;1010633;29;958;-23
2021/10/15 00:38:20;;;;;;;;;;;;;;;;;;1006835;29;1423;-30
2021/10/15 00:38:50;;;;;;;;;;;;;;;;;;1010657;29;3647;-29
2021/10/15 00:39:21;;;;;;;;;;;;;;;;;;1018464;29;1214;-26
2021/10/15 00:39:51;;;;;;;;;;;;;;;;;;1018630;29;1087;-31
2021/10/15 00:40:22;;;;;;;;;;;;;;;;;;1014739;29;1436;-30
2021/10/15 00:40:52;;;;;;;;;;;;;;;;;;1015603;29;935;-28
2021/10/15 00:41:22;;;;;;;;;;;;;;;;;;1014963;29;1361;-32
2021/10/15 00:41:53;;;;;;;;;;;;;;;;;;1015393;29;954;-26
2021/10/15 00:42:23;;;;;;;;;;;;;;;;;;1015326;29;1316;-30
2021/10/15 00:42:54;;;;;;;;;;;;;;;;;;1015266;29;998;-27
2021/10/15 00:43:25;;;;;;;;;;;;;;;;;;1014714;29;1087;-27
2021/10/15 00:44:09;;;;;;;;;;;;;;;;;;1014502;29;1394;-28
2021/10/15 00:44:39;;;;;;;;;;;;;;;;;;1014619;29;937;-25
2021/10/15 00:45:10;;;;;;;;;;;;;;;;;;1012834;29;1083;-28
2021/10/15 00:45:41;;;;;;;;;;;;;;;;;;1015891;29;1613;-26
2021/10/15 00:46:12;;;;;;;;;;;;;;;;;;1014495;29;951;-34
2021/10/15 00:46:42;;;;;;;;;;;;;;;;;;1010713;29;1127;-31
2021/10/15 00:47:13;;;;;;;;;;;;;;;;;;1010235;29;1710;-30
2021/10/15 00:47:43;;;;;;;;;;;;;;;;;;1002942;29;1113;-26
2021/10/15 00:48:14;;;;;;;;;;;;;;;;;;1002909;29;1059;-32
2021/10/15 00:48:45;;;;;;;;;;;;;;;;;;1002851;29;1911;-29
2021/10/15 00:49:15;;;;;;;;;;;;;;;;;;1003168;29;1131;-35
2021/10/15 00:49:46;;;;;;;;;;;;;;;;;;1010476;29;1359;-31
2021/10/15 00:50:16;;;;;;;;;;;;;;;;;;1010658;29;1032;-29
2021/10/15 00:50:48;;;;;;;;;;;;;;;;;;1014273;29;1816;-34
2021/10/15 00:51:19;;;;;;;;;;;;;;;;;;1014125;29;1289;-31
2021/10/15 00:51:50;;;;;;;;;;;;;;;;;;1010017;29;1221;-30
2021/10/15 00:52:21;;;;;;;;;;;;;;;;;;1009925;29;1595;-29
2021/10/15 00:52:51;;;;;;;;;;;;;;;;;;1010744;29;1260;-30
2021/10/15 00:53:22;;;;;;;;;;;;;;;;;;1010392;29;1139;-29
2021/10/15 00:53:53;;;;;;;;;;;;;;;;;;1006107;29;1060;-30
2021/10/15 00:54:24;;;;;;;;;;;;;;;;;;1002730;29;1083;-31
2021/10/15 00:54:55;;;;;;;;;;;;;;;;;;1002349;29;1393;-29
2021/10/15 00:55:25;;;;;;;;;;;;;;;;;;1006806;29;1011;-27
2021/10/15 00:55:57;;;;;;;;;;;;;;;;;;1014667;29;883;-30
2021/10/15 00:56:28;;;;;;;;;;;;;;;;;;1014387;29;1478;-25
2021/10/15 00:56:58;;;;;;;;;;;;;;;;;;1019208;29;1033;-30
2021/10/15 00:57:29;;;;;;;;;;;;;;;;;;1018207;29;1323;-26
2021/10/15 00:58:01;;;;;;;;;;;;;;;;;;1018400;29;1324;-30
2021/10/15 00:58:31;;;;;;;;;;;;;;;;;;1018418;29;961;-29
2021/10/15 00:59:02;;;;;;;;;;;;;;;;;;1014211;29;1432;-32
2021/10/15 00:59:32;;;;;;;;;;;;;;;;;;1014474;29;1149;-30
2021/10/15 01:00:03;;;;;;;;;;;;;;;;;;1014372;29;1362;-30
2021/10/15 01:00:34;;;;;;;;;;;;;;;;;;1014404;29;1090;-32
2021/10/15 01:01:04;;;;;;;;;;;;;;;;;;1018579;29;1080;-29
2021/10/15 01:01:35;;;;;;;;;;;;;;;;;;1018684;29;1440;-32
2021/10/15 01:02:05;;;;;;;;;;;;;;;;;;1019052;29;1123;-31
2021/10/15 01:02:36;;;;;;;;;;;;;;;;;;1018749;29;1191;-33
2021/10/15 01:03:07;;;;;;;;;;;;;;;;;;1013779;29;1684;-32
2021/10/15 01:03:38;;;;;;;;;;;;;;;;;;1010598;29;1454;-31
2021/10/15 01:04:10;;;;;;;;;;;;;;;;;;1011030;29;1114;-27
2021/10/15 01:04:41;;;;;;;;;;;;;;;;;;1010210;29;974;-27
2021/10/15 01:05:12;;;;;;;;;;;;;;;;;;1004608;29;2602;-29
2021/10/15 01:05:42;;;;;;;;;;;;;;;;;;1002603;29;1630;-30
2021/10/15 01:06:13;;;;;;;;;;;;;;;;;;1002859;29;1121;-32
2021/10/15 01:06:44;;;;;;;;;;;;;;;;;;1002716;29;1581;-28
2021/10/15 01:07:15;;;;;;;;;;;;;;;;;;1001857;29;1374;-31
2021/10/15 01:07:46;;;;;;;;;;;;;;;;;;999093;29;1096;-30
2021/10/15 01:08:17;;;;;;;;;;;;;;;;;;995211;29;1054;-31
2021/10/15 01:08:48;;;;;;;;;;;;;;;;;;999025;29;1904;-31
2021/10/15 01:09:19;;;;;;;;;;;;;;;;;;1002834;29;1085;-27
2021/10/15 01:09:49;;;;;;;;;;;;;;;;;;1006378;29;1184;-35
2021/10/15 01:10:20;;;;;;;;;;;;;;;;;;1014817;29;1002;-27
2021/10/15 01:10:50;;;;;;;;;;;;;;;;;;1018116;29;1414;-33
2021/10/15 01:11:22;;;;;;;;;;;;;;;;;;1010459;29;1201;-30
2021/10/15 01:11:53;;;;;;;;;;;;;;;;;;1006812;29;1054;-29
2021/10/15 01:12:25;;;;;;;;;;;;;;;;;;1009803;29;1199;-28
2021/10/15 01:12:55;;;;;;;;;;;;;;;;;;1010415;29;1050;-28
2021/10/15 01:13:27;;;;;;;;;;;;;;;;;;1010488;29;1556;-29
2021/10/15 01:13:58;;;;;;;;;;;;;;;;;;1010379;29;1226;-34
2021/10/15 01:14:29;;;;;;;;;;;;;;;;;;1010595;29;1022;-24
2021/10/15 01:15:00;;;;;;;;;;;;;;;;;;1005726;29;1539;-28
2021/10/15 01:15:30;;;;;;;;;;;;;;;;;;1006641;29;1042;-33
2021/10/15 01:16:03;;;;;;;;;;;;;;;;;;1002638;29;1057;-30
2021/10/15 01:16:34;;;;;;;;;;;;;;;;;;1002774;29;1452;-29
2021/10/15 01:17:04;;;;;;;;;;;;;;;;;;1006737;29;899;-31
2021/10/15 01:17:35;;;;;;;;;;;;;;;;;;1006762;29;1404;-35
2021/10/15 01:18:12;;;;;;;;;;;;;;;;;;1014689;29;1010;-27
2021/10/15 01:18:43;;;;;;;;;;;;;;;;;;1010607;29;998;-31
2021/10/15 01:19:14;;;;;;;;;;;;;;;;;;1010425;29;1066;-29
2021/10/15 01:19:44;;;;;;;;;;;;;;;;;;1010679;29;1365;-31
2021/10/15 01:20:15;;;;;;;;;;;;;;;;;;1010348;29;1532;-29
2021/10/15 01:20:48;;;;;;;;;;;;;;;;;;1010518;29;1088;-27
2021/10/15 01:21:18;;;;;;;;;;;;;;;;;;1010626;29;1332;-28
2021/10/15 01:21:50;;;;;;;;;;;;;;;;;;1005885;29;1459;-32
2021/10/15 01:22:24;;;;;;;;;;;;;;;;;;1006856;29;1236;-29
2021/10/15 01:22:55;;;;;;;;;;;;;;;;;;1006017;29;1499;-30
2021/10/15 01:23:25;;;;;;;;;;;;;;;;;;1007898;29;1050;-27
2021/10/15 01:23:56;;;;;;;;;;;;;;;;;;1014345;29;1069;-26
2021/10/15 01:24:27;;;;;;;;;;;;;;;;;;1016805;29;1232;-30
2021/10/15 01:24:58;;;;;;;;;;;;;;;;;;1018231;29;1013;-30
2021/10/15 01:25:32;;;;;;;;;;;;;;;;;;1014586;29;1015;-26
2021/10/15 01:26:03;;;;;;;;;;;;;;;;;;1009680;29;1319;-28
2021/10/15 01:26:34;;;;;;;;;;;;;;;;;;1005861;29;1411;-30
2021/10/15 01:27:05;;;;;;;;;;;;;;;;;;1002226;29;1224;-27
2021/10/15 01:27:36;;;;;;;;;;;;;;;;;;999535;29;1194;-31
2021/10/15 01:28:06;;;;;;;;;;;;;;;;;;1010578;29;1087;-30
2021/10/15 01:28:37;;;;;;;;;;;;;;;;;;1021757;29;1433;-32
2021/10/15 01:29:07;;;;;;;;;;;;;;;;;;1022184;29;1914;-29
2021/10/15 01:29:38;;;;;;;;;;;;;;;;;;1018112;29;1347;-30
2021/10/15 01:30:10;;;;;;;;;;;;;;;;;;1018047;29;1191;-29
2021/10/15 01:30:40;;;;;;;;;;;;;;;;;;1010521;29;974;-32
2021/10/15 01:31:11;;;;;;;;;;;;;;;;;;1013597;29;1574;-29
2021/10/15 01:31:42;;;;;;;;;;;;;;;;;;1006538;29;1040;-30
2021/10/15 01:32:14;;;;;;;;;;;;;;;;;;1002395;29;1023;-29
2021/10/15 01:32:45;;;;;;;;;;;;;;;;;;1002276;29;1192;-28
2021/10/15 01:33:16;;;;;;;;;;;;;;;;;;999373;29;1136;-30
2021/10/15 01:33:46;;;;;;;;;;;;;;;;;;1006381;29;1276;-30
2021/10/15 01:34:16;;;;;;;;;;;;;;;;;;1010413;29;1219;-29
2021/10/15 01:34:47;;;;;;;;;;;;;;;;;;1014726;29;1043;-30
2021/10/15 01:35:18;;;;;;;;;;;;;;;;;;1018369;29;1164;-29
2021/10/15 01:35:48;;;;;;;;;;;;;;;;;;1022368;29;1209;-32
2021/10/15 01:36:19;;;;;;;;;;;;;;;;;;1017423;29;1644;-31
2021/10/15 01:36:49;;;;;;;;;;;;;;;;;;1010403;29;1098;-30
2021/10/15 01:37:20;;;;;;;;;;;;;;;;;;1006471;29;976;-27
2021/10/15 01:37:50;;;;;;;;;;;;;;;;;;1001911;29;1472;-31
2021/10/15 01:38:21;;;;;;;;;;;;;;;;;;1010279;29;1092;-33
2021/10/15 01:38:52;;;;;;;;;;;;;;;;;;1018070;29;3651;-29
2021/10/15 01:39:22;;;;;;;;;;;;;;;;;;1013789;29;1405;-31
2021/10/15 01:39:52;;;;;;;;;;;;;;;;;;1014467;29;1075;-31
2021/10/15 01:40:23;;;;;;;;;;;;;;;;;;1022056;29;1457;-33
2021/10/15 01:40:53;;;;;;;;;;;;;;;;;;1022061;29;1110;-31
2021/10/15 01:41:25;;;;;;;;;;;;;;;;;;1022326;29;1063;-35
2021/10/15 01:41:55;;;;;;;;;;;;;;;;;;1021316;29;1193;-28
2021/10/15 01:43:22;;;;;;;;;;;;;;;;;;1015905;29;1480;-27
2021/10/15 01:43:52;;;;;;;;;;;;;;;;;;1018926;29;1054;-27
2021/10/15 01:44:22;;;;;;;;;;;;;;;;;;1018476;29;1312;-35
2021/10/15 01:44:53;;;;;;;;;;;;;;;;;;1017646;29;1218;-32
2021/10/15 01:45:27;;;;;;;;;;;;;;;;;;1006691;29;1028;-30
2021/10/15 01:45:58;;;;;;;;;;;;;;;;;;1005855;29;1469;-34
2021/10/15 01:46:29;;;;;;;;;;;;;;;;;;1002835;29;1306;-27
2021/10/15 01:46:59;;;;;;;;;;;;;;;;;;1004099;29;1515;-31
2021/10/15 01:47:30;;;;;;;;;;;;;;;;;;1014298;29;1235;-29
2021/10/15 01:48:00;;;;;;;;;;;;;;;;;;1018290;29;1075;-28
2021/10/15 01:48:31;;;;;;;;;;;;;;;;;;1017604;29;1671;-32
2021/10/15 01:49:02;;;;;;;;;;;;;;;;;;1018032;29;1958;-28
2021/10/15 01:49:32;;;;;;;;;;;;;;;;;;1013856;29;1522;-34
2021/10/15 01:50:03;;;;;;;;;;;;;;;;;;1010213;29;1351;-27
2021/10/15 01:50:33;;;;;;;;;;;;;;;;;;1010312;29;1054;-27
2021/10/15 01:51:04;;;;;;;;;;;;;;;;;;1009994;29;1305;-32
2021/10/15 01:51:34;;;;;;;;;;;;;;;;;;1014404;29;1195;-28
2021/10/15 01:52:05;;;;;;;;;;;;;;;;;;1014365;29;926;-28
2021/10/15 01:52:37;;;;;;;;;;;;;;;;;;1013984;29;1138;-30
2021/10/15 01:53:08;;;;;;;;;;;;;;;;;;1014501;29;1137;-33
2021/10/15 01:53:40;;;;;;;;;;;;;;;;;;1014254;29;1075;-30
2021/10/15 01:54:11;;;;;;;;;;;;;;;;;;1010228;29;1027;-28
2021/10/15 01:54:42;;;;;;;;;;;;;;;;;;1002523;29;1053;-33
2021/10/15 01:55:14;;;;;;;;;;;;;;;;;;998034;29;1619;-31
2021/10/15 01:55:45;;;;;;;;;;;;;;;;;;995613;29;1281;-31
2021/10/15 01:56:15;;;;;;;;;;;;;;;;;;1002248;29;1511;-29
2021/10/15 01:56:47;;;;;;;;;;;;;;;;;;1006915;29;1287;-29
2021/10/15 01:57:18;;;;;;;;;;;;;;;;;;1010562;29;1128;-28
2021/10/15 01:57:48;;;;;;;;;;;;;;;;;;1013788;29;1382;-31
2021/10/15 01:58:19;;;;;;;;;;;;;;;;;;1010226;29;1178;-32
2021/10/15 01:58:50;;;;;;;;;;;;;;;;;;1010368;29;1436;-29
2021/10/15 01:59:20;;;;;;;;;;;;;;;;;;1006331;29;1085;-31
2021/10/15 01:59:52;;;;;;;;;;;;;;;;;;1006423;29;1151;-33
2021/10/15 02:00:22;;;;;;;;;;;;;;;;;;1009827;29;1472;-29
2021/10/15 02:00:53;;;;;;;;;;;;;;;;;;1009744;29;1371;-28
2021/10/15 02:01:23;;;;;;;;;;;;;;;;;;1009525;29;2696;-30
2021/10/15 02:01:54;;;;;;;;;;;;;;;;;;1005611;29;1756;-28
2021/10/15 02:02:25;;;;;;;;;;;;;;;;;;1010231;29;1158;-29
2021/10/15 02:02:55;;;;;;;;;;;;;;;;;;1006118;29;1588;-29
2021/10/15 02:03:26;;;;;;;;;;;;;;;;;;1006571;29;963;-31
2021/10/15 02:03:56;;;;;;;;;;;;;;;;;;1010235;29;1096;-30
2021/10/15 02:04:26;;;;;;;;;;;;;;;;;;1018305;29;1022;-31
2021/10/15 02:04:57;;;;;;;;;;;;;;;;;;1017975;29;1023;-26
2021/10/15 02:05:29;;;;;;;;;;;;;;;;;;1018483;29;1002;-26
2021/10/15 02:06:00;;;;;;;;;;;;;;;;;;1014526;29;1324;-29
2021/10/15 02:06:30;;;;;;;;;;;;;;;;;;1010139;29;1179;-29
2021/10/15 02:07:01;;;;;;;;;;;;;;;;;;1009864;29;1333;-29
2021/10/15 02:07:32;;;;;;;;;;;;;;;;;;1018134;29;1120;-29
2021/10/15 02:08:03;;;;;;;;;;;;;;;;;;1018048;29;1102;-32
2021/10/15 02:08:33;;;;;;;;;;;;;;;;;;1017879;29;1475;-34
2021/10/15 02:09:05;;;;;;;;;;;;;;;;;;1017769;29;1987;-30
2021/10/15 02:09:35;;;;;;;;;;;;;;;;;;1010223;29;1470;-25
2021/10/15 02:10:08;;;;;;;;;;;;;;;;;;1009989;29;1044;-32
2021/10/15 02:10:39;;;;;;;;;;;;;;;;;;1007014;29;1068;-25
2021/10/15 02:11:09;;;;;;;;;;;;;;;;;;1013962;29;1383;-30
2021/10/15 02:11:40;;;;;;;;;;;;;;;;;;1018196;29;1042;-33
2021/10/15 02:12:11;;;;;;;;;;;;;;;;;;1017435;29;1501;-27
2021/10/15 02:12:42;;;;;;;;;;;;;;;;;;1010123;29;1101;-27
2021/10/15 02:13:13;;;;;;;;;;;;;;;;;;1006358;29;1141;-33
2021/10/15 02:13:43;;;;;;;;;;;;;;;;;;1006595;29;1175;-30
2021/10/15 02:14:13;;;;;;;;;;;;;;;;;;1006599;29;943;-28
2021/10/15 02:14:44;;;;;;;;;;;;;;;;;;1018312;29;1035;-30
2021/10/15 02:15:15;;;;;;;;;;;;;;;;;;1022071;29;1161;-35
2021/10/15 02:15:46;;;;;;;;;;;;;;;;;;1022372;29;973;-33
2021/10/15 02:16:17;;;;;;;;;;;;;;;;;;1013606;29;1060;-27
2021/10/15 02:16:48;;;;;;;;;;;;;;;;;;1018112;29;1141;-29
2021/10/15 02:17:18;;;;;;;;;;;;;;;;;;1012817;29;1491;-28
2021/10/15 02:17:49;;;;;;;;;;;;;;;;;;1001973;29;1306;-31
2021/10/15 02:18:20;;;;;;;;;;;;;;;;;;998820;29;1169;-29
2021/10/15 02:18:50;;;;;;;;;;;;;;;;;;1002927;29;1144;-30
2021/10/15 02:19:21;;;;;;;;;;;;;;;;;;1017966;29;1003;-29
2021/10/15 02:19:51;;;;;;;;;;;;;;;;;;1018286;29;1327;-34
2021/10/15 02:20:21;;;;;;;;;;;;;;;;;;1017489;29;1486;-33
2021/10/15 02:20:52;;;;;;;;;;;;;;;;;;1010255;29;1171;-32
2021/10/15 02:21:27;;;;;;;;;;;;;;;;;;1014145;29;1214;-32
2021/10/15 02:21:58;;;;;;;;;;;;;;;;;;1013497;29;1883;-29
2021/10/15 02:22:28;;;;;;;;;;;;;;;;;;1014684;29;1308;-29
2021/10/15 02:22:59;;;;;;;;;;;;;;;;;;1017605;29;1208;-32
2021/10/15 02:23:29;;;;;;;;;;;;;;;;;;1018259;29;895;-32
2021/10/15 02:24:00;;;;;;;;;;;;;;;;;;1018135;29;1065;-27
2021/10/15 02:24:30;;;;;;;;;;;;;;;;;;1017698;29;1554;-25
2021/10/15 02:25:01;;;;;;;;;;;;;;;;;;1017789;29;1078;-34
2021/10/15 02:25:31;;;;;;;;;;;;;;;;;;1017964;29;1551;-26
2021/10/15 02:26:02;;;;;;;;;;;;;;;;;;1017760;29;1139;-25
2021/10/15 02:26:32;;;;;;;;;;;;;;;;;;1022001;29;1127;-30
2021/10/15 02:27:03;;;;;;;;;;;;;;;;;;1022009;29;974;-28
2021/10/15 02:27:33;;;;;;;;;;;;;;;;;;1022010;29;1271;-32
2021/10/15 02:28:05;;;;;;;;;;;;;;;;;;1022042;29;934;-36
2021/10/15 02:28:35;;;;;;;;;;;;;;;;;;1017112;29;1732;-26
2021/10/15 02:29:06;;;;;;;;;;;;;;;;;;1017774;29;1975;-26
2021/10/15 02:29:37;;;;;;;;;;;;;;;;;;1021895;29;1324;-31
2021/10/15 02:30:09;;;;;;;;;;;;;;;;;;1021720;29;1156;-31
2021/10/15 02:30:41;;;;;;;;;;;;;;;;;;1014126;29;1020;-24
2021/10/15 02:31:11;;;;;;;;;;;;;;;;;;1001462;29;1249;-35
2021/10/15 02:31:41;;;;;;;;;;;;;;;;;;999458;29;1261;-29
2021/10/15 02:32:12;;;;;;;;;;;;;;;;;;1002304;29;1173;-33
2021/10/15 02:32:44;;;;;;;;;;;;;;;;;;1010399;29;1232;-32
2021/10/15 02:33:14;;;;;;;;;;;;;;;;;;1021594;29;1231;-28
2021/10/15 02:33:45;;;;;;;;;;;;;;;;;;1016876;29;1392;-28
2021/10/15 02:34:17;;;;;;;;;;;;;;;;;;1017703;29;1231;-27
2021/10/15 02:34:47;;;;;;;;;;;;;;;;;;1017718;29;1279;-30
2021/10/15 02:35:18;;;;;;;;;;;;;;;;;;1005905;29;1376;-31
2021/10/15 02:35:49;;;;;;;;;;;;;;;;;;1014250;29;1120;-32
2021/10/15 02:36:19;;;;;;;;;;;;;;;;;;1013119;29;1138;-25
2021/10/15 02:36:50;;;;;;;;;;;;;;;;;;1006461;29;1030;-31
2021/10/15 02:37:20;;;;;;;;;;;;;;;;;;1021875;29;942;-30
2021/10/15 02:37:51;;;;;;;;;;;;;;;;;;1021422;28;1527;-28
2021/10/15 02:38:22;;;;;;;;;;;;;;;;;;1022023;29;1055;-29
2021/10/15 02:38:53;;;;;;;;;;;;;;;;;;1017465;29;3718;-33
2021/10/15 02:39:23;;;;;;;;;;;;;;;;;;1017808;29;1138;-25
2021/10/15 02:39:54;;;;;;;;;;;;;;;;;;1014244;29;1081;-28
2021/10/15 02:40:24;;;;;;;;;;;;;;;;;;1017642;29;1329;-27
2021/10/15 02:40:55;;;;;;;;;;;;;;;;;;1013941;29;1082;-29
2021/10/15 02:41:26;;;;;;;;;;;;;;;;;;1010270;29;1136;-28
2021/10/15 02:41:57;;;;;;;;;;;;;;;;;;1005794;29;1214;-29
2021/10/15 02:42:28;;;;;;;;;;;;;;;;;;1002759;29;973;-34
2021/10/15 02:42:58;;;;;;;;;;;;;;;;;;1001872;29;1333;-30
2021/10/15 02:43:29;;;;;;;;;;;;;;;;;;998746;29;984;-31
2021/10/15 02:44:00;;;;;;;;;;;;;;;;;;1006505;29;1050;-29
2021/10/15 02:44:31;;;;;;;;;;;;;;;;;;1005814;29;1613;-30
2021/10/15 02:45:02;;;;;;;;;;;;;;;;;;1006254;29;1175;-28
2021/10/15 02:45:37;;;;;;;;;;;;;;;;;;1009084;29;1383;-25
2021/10/15 02:46:14;;;;;;;;;;;;;;;;;;1005994;29;1218;-33
2021/10/15 02:46:44;;;;;;;;;;;;;;;;;;1011752;29;1282;-24
2021/10/15 02:47:15;;;;;;;;;;;;;;;;;;1013659;29;1227;-29
2021/10/15 02:47:46;;;;;;;;;;;;;;;;;;1015356;29;994;-31
2021/10/15 02:48:16;;;;;;;;;;;;;;;;;;1021830;29;932;-32
2021/10/15 02:48:46;;;;;;;;;;;;;;;;;;1022216;29;959;-28
2021/10/15 02:49:17;;;;;;;;;;;;;;;;;;1021808;29;1918;-30
2021/10/15 02:49:49;;;;;;;;;;;;;;;;;;1009962;29;1231;-25
2021/10/15 02:50:20;;;;;;;;;;;;;;;;;;1014070;29;1117;-29
2021/10/15 02:50:51;;;;;;;;;;;;;;;;;;1014127;29;1047;-29
2021/10/15 02:51:21;;;;;;;;;;;;;;;;;;1006356;29;983;-29
2021/10/15 02:51:51;;;;;;;;;;;;;;;;;;1009996;29;1129;-29
2021/10/15 02:52:22;;;;;;;;;;;;;;;;;;1005704;29;1547;-25
2021/10/15 02:52:53;;;;;;;;;;;;;;;;;;1017751;29;1330;-28
2021/10/15 02:53:24;;;;;;;;;;;;;;;;;;1014189;29;1005;-27
2021/10/15 02:53:54;;;;;;;;;;;;;;;;;;1013526;29;1609;-31
2021/10/15 02:54:25;;;;;;;;;;;;;;;;;;1013700;29;1231;-27
2021/10/15 02:54:55;;;;;;;;;;;;;;;;;;1006084;29;1393;-28
2021/10/15 02:55:26;;;;;;;;;;;;;;;;;;1014088;29;1074;-26
2021/10/15 02:55:56;;;;;;;;;;;;;;;;;;1014213;29;1018;-34
2021/10/15 02:56:27;;;;;;;;;;;;;;;;;;1009445;29;1435;-28
2021/10/15 02:56:58;;;;;;;;;;;;;;;;;;1013994;29;1020;-26
2021/10/15 02:57:29;;;;;;;;;;;;;;;;;;1013820;29;1290;-28
2021/10/15 02:58:00;;;;;;;;;;;;;;;;;;1010312;29;2759;-34
2021/10/15 02:58:30;;;;;;;;;;;;;;;;;;1006415;29;1132;-28
2021/10/15 02:59:03;;;;;;;;;;;;;;;;;;1013662;29;1334;-25
2021/10/15 02:59:33;;;;;;;;;;;;;;;;;;1013917;29;1086;-25
2021/10/15 03:00:05;;;;;;;;;;;;;;;;;;1014142;29;1249;-26
2021/10/15 03:00:36;;;;;;;;;;;;;;;;;;1007945;29;1536;-24
2021/10/15 03:01:07;;;;;;;;;;;;;;;;;;999033;29;1215;-30
2021/10/15 03:01:37;;;;;;;;;;;;;;;;;;1006196;29;1121;-28
2021/10/15 03:02:07;;;;;;;;;;;;;;;;;;1008092;29;1097;-27
2021/10/15 03:02:38;;;;;;;;;;;;;;;;;;1018139;29;1006;-30
2021/10/15 03:03:08;;;;;;;;;;;;;;;;;;1017403;29;1605;-25
2021/10/15 03:03:40;;;;;;;;;;;;;;;;;;1010054;29;1295;-28
2021/10/15 03:04:10;;;;;;;;;;;;;;;;;;1005485;29;1678;-34
2021/10/15 03:04:41;;;;;;;;;;;;;;;;;;1006177;29;1171;-29
2021/10/15 03:05:12;;;;;;;;;;;;;;;;;;1006422;29;1055;-28
2021/10/15 03:05:42;;;;;;;;;;;;;;;;;;1009624;29;1506;-27
2021/10/15 03:06:13;;;;;;;;;;;;;;;;;;1009626;29;1233;-28
2021/10/15 03:06:44;;;;;;;;;;;;;;;;;;1002344;29;974;-30
2021/10/15 03:07:15;;;;;;;;;;;;;;;;;;998144;29;1460;-29
2021/10/15 03:07:45;;;;;;;;;;;;;;;;;;998537;29;1180;-31
2021/10/15 03:08:16;;;;;;;;;;;;;;;;;;998212;29;1748;-28
2021/10/15 03:08:47;;;;;;;;;;;;;;;;;;998619;29;1125;-34
2021/10/15 03:09:17;;;;;;;;;;;;;;;;;;1006230;29;1918;-27
2021/10/15 03:09:49;;;;;;;;;;;;;;;;;;1010002;29;1521;-32
2021/10/15 03:10:20;;;;;;;;;;;;;;;;;;1014269;29;1135;-32
2021/10/15 03:10:50;;;;;;;;;;;;;;;;;;1021926;29;1466;-29
2021/10/15 03:11:21;;;;;;;;;;;;;;;;;;1009510;29;1157;-29
2021/10/15 03:11:55;;;;;;;;;;;;;;;;;;1010124;29;1062;-28
2021/10/15 03:12:25;;;;;;;;;;;;;;;;;;1004515;29;1725;-31
2021/10/15 03:12:56;;;;;;;;;;;;;;;;;;998487;29;1311;-31
2021/10/15 03:13:27;;;;;;;;;;;;;;;;;;998881;29;1485;-30
2021/10/15 03:13:57;;;;;;;;;;;;;;;;;;998129;29;1247;-28
2021/10/15 03:14:28;;;;;;;;;;;;;;;;;;1004686;29;1085;-32
2021/10/15 03:14:59;;;;;;;;;;;;;;;;;;1009325;29;1664;-29
2021/10/15 03:15:29;;;;;;;;;;;;;;;;;;1003789;29;1286;-28
2021/10/15 03:16:00;;;;;;;;;;;;;;;;;;1009963;29;1200;-33
2021/10/15 03:16:31;;;;;;;;;;;;;;;;;;1009112;29;1385;-27
2021/10/15 03:17:02;;;;;;;;;;;;;;;;;;1006652;29;1181;-32
2021/10/15 03:17:32;;;;;;;;;;;;;;;;;;1002117;29;1620;-32
2021/10/15 03:18:02;;;;;;;;;;;;;;;;;;1002315;29;1223;-30
2021/10/15 03:18:33;;;;;;;;;;;;;;;;;;1014132;29;1165;-26
2021/10/15 03:19:03;;;;;;;;;;;;;;;;;;1013461;29;1409;-29
2021/10/15 03:19:35;;;;;;;;;;;;;;;;;;1018401;29;1066;-25
2021/10/15 03:20:07;;;;;;;;;;;;;;;;;;1014041;29;1105;-26
2021/10/15 03:20:37;;;;;;;;;;;;;;;;;;1010120;29;1065;-31
2021/10/15 03:21:08;;;;;;;;;;;;;;;;;;1010146;29;1014;-33
2021/10/15 03:21:38;;;;;;;;;;;;;;;;;;1009725;29;1313;-31
2021/10/15 03:22:08;;;;;;;;;;;;;;;;;;1013579;29;1038;-32
2021/10/15 03:22:39;;;;;;;;;;;;;;;;;;1018619;29;978;-32
2021/10/15 03:23:10;;;;;;;;;;;;;;;;;;1018255;29;1597;-29
2021/10/15 03:23:40;;;;;;;;;;;;;;;;;;1018741;29;1549;-30
2021/10/15 03:24:10;;;;;;;;;;;;;;;;;;1018139;29;1340;-33
2021/10/15 03:24:41;;;;;;;;;;;;;;;;;;1018558;29;1238;-25
2021/10/15 03:25:11;;;;;;;;;;;;;;;;;;1018528;29;955;-26
2021/10/15 03:25:42;;;;;;;;;;;;;;;;;;1021519;29;1188;-29
2021/10/15 03:26:13;;;;;;;;;;;;;;;;;;1021667;29;1161;-30
2021/10/15 03:26:44;;;;;;;;;;;;;;;;;;1022033;29;982;-30
2021/10/15 03:27:14;;;;;;;;;;;;;;;;;;1013641;29;1309;-29
2021/10/15 03:27:45;;;;;;;;;;;;;;;;;;1009708;29;1384;-30
2021/10/15 03:28:16;;;;;;;;;;;;;;;;;;1013342;29;1732;-34
2021/10/15 03:28:46;;;;;;;;;;;;;;;;;;1006163;29;1315;-31
2021/10/15 03:29:17;;;;;;;;;;;;;;;;;;1013759;29;1976;-32
2021/10/15 03:29:47;;;;;;;;;;;;;;;;;;1009331;29;1683;-34
2021/10/15 03:30:18;;;;;;;;;;;;;;;;;;1009791;29;995;-29
2021/10/15 03:30:48;;;;;;;;;;;;;;;;;;1013813;29;1466;-30
2021/10/15 03:31:19;;;;;;;;;;;;;;;;;;1013903;29;1198;-32
2021/10/15 03:31:49;;;;;;;;;;;;;;;;;;1017918;29;1293;-33
2021/10/15 03:32:19;;;;;;;;;;;;;;;;;;1014034;29;1013;-29
2021/10/15 03:32:50;;;;;;;;;;;;;;;;;;1018021;29;1083;-31
2021/10/15 03:33:20;;;;;;;;;;;;;;;;;;1010168;29;1142;-35
2021/10/15 03:33:51;;;;;;;;;;;;;;;;;;1009097;29;1386;-29
2021/10/15 03:34:21;;;;;;;;;;;;;;;;;;1013841;29;1404;-30
2021/10/15 03:34:52;;;;;;;;;;;;;;;;;;1005409;29;1505;-30
2021/10/15 03:35:23;;;;;;;;;;;;;;;;;;1009797;29;1240;-30